createdAt,value
2023-05-25T00:01:02.652Z,101453.13
2023-05-25T00:04:10.476Z,101448.03
2023-05-25T00:07:15.790Z,101451.59
2023-05-25T00:10:21.259Z,101450.47
2023-05-25T00:13:26.685Z,101446.22
2023-05-25T00:16:37.733Z,101440.56
2023-05-25T00:19:44.136Z,101438.94
2023-05-25T00:22:49.209Z,101440.97
2023-05-25T00:25:54.370Z,101433.22
2023-05-25T00:29:00.554Z,101438.81
2023-05-25T00:32:07.932Z,101433.63
2023-05-25T00:35:13.877Z,101444.97
2023-05-25T00:38:20.047Z,101437.81
2023-05-25T00:41:26.447Z,101440.84
2023-05-25T00:44:32.236Z,101440.75
2023-05-25T00:47:38.929Z,101438.56
2023-05-25T00:50:45.820Z,101426.69
2023-05-25T00:53:51.258Z,101434.50
2023-05-25T00:57:05.357Z,101433.09
2023-05-25T01:00:13.850Z,101439.88
2023-05-25T01:03:22.437Z,101425.84
2023-05-25T01:06:28.991Z,101435.97
2023-05-25T01:09:36.065Z,101431.56
2023-05-25T01:12:41.825Z,101429.66
2023-05-25T01:15:47.587Z,101435.78
2023-05-25T01:18:54.440Z,101430.94
2023-05-25T01:22:05.872Z,101431.97
2023-05-25T01:25:14.877Z,101430.22
2023-05-25T01:28:22.677Z,101431.31
2023-05-25T01:31:28.026Z,101430.22
2023-05-25T01:34:33.509Z,101421.56
2023-05-25T01:37:40.934Z,101428.47
2023-05-25T01:40:46.055Z,101432.88
2023-05-25T01:43:51.832Z,101421.63
2023-05-25T01:47:01.448Z,101423.31
2023-05-25T01:50:13.294Z,101426.53
2023-05-25T01:53:22.040Z,101437.97
2023-05-25T01:56:28.807Z,101430.31
2023-05-25T01:59:34.031Z,101430.75
2023-05-25T02:02:43.661Z,101432.22
2023-05-25T02:05:49.397Z,101439.59
2023-05-25T02:08:55.929Z,101438.34
2023-05-25T02:12:03.190Z,101440.72
2023-05-25T02:15:09.682Z,101439.00
2023-05-25T02:18:17.883Z,101449.66
2023-05-25T02:21:23.013Z,101444.84
2023-05-25T02:24:31.663Z,101439.47
2023-05-25T02:27:38.971Z,101439.47
2023-05-25T02:30:45.489Z,101432.53
2023-05-25T02:33:50.751Z,101418.09
2023-05-25T02:36:57.440Z,101425.44
2023-05-25T02:40:12.105Z,101428.66
2023-05-25T02:43:19.118Z,101429.97
2023-05-25T02:46:24.540Z,101436.19
2023-05-25T02:49:30.051Z,101438.06
2023-05-25T02:52:35.479Z,101444.41
2023-05-25T02:55:43.641Z,101454.63
2023-05-25T02:58:54.577Z,101451.72
2023-05-25T03:02:06.962Z,101440.63
2023-05-25T03:05:14.512Z,101448.03
2023-05-25T03:08:19.605Z,101456.53
2023-05-25T03:11:27.209Z,101459.19
2023-05-25T03:14:35.217Z,101455.09
2023-05-25T03:17:43.324Z,101466.22
2023-05-25T03:20:49.140Z,101460.31
2023-05-25T03:23:54.187Z,101460.69
2023-05-25T03:27:00.844Z,101455.94
2023-05-25T03:30:07.388Z,101458.78
2023-05-25T03:33:14.546Z,101460.94
2023-05-25T03:36:27.523Z,101456.84
2023-05-25T03:39:33.026Z,101450.38
2023-05-25T03:42:39.779Z,101460.16
2023-05-25T03:45:45.659Z,101451.28
2023-05-25T03:48:51.129Z,101450.13
2023-05-25T03:51:56.501Z,101448.78
2023-05-25T03:55:04.724Z,101441.72
2023-05-25T03:58:11.239Z,101456.31
2023-05-25T04:01:16.773Z,101451.34
2023-05-25T04:04:22.152Z,101458.03
2023-05-25T04:07:30.157Z,101466.28
2023-05-25T04:10:36.817Z,101458.19
2023-05-25T04:13:43.619Z,101451.22
2023-05-25T04:16:48.929Z,101467.19
2023-05-25T04:19:54.810Z,101468.84
2023-05-25T04:23:00.048Z,101474.25
2023-05-25T04:26:06.153Z,101476.38
2023-05-25T04:29:13.716Z,101490.47
2023-05-25T04:32:30.015Z,101494.63
2023-05-25T04:35:58.727Z,101505.25
2023-05-25T04:39:04.033Z,101498.16
2023-05-25T04:42:12.928Z,101504.84
2023-05-25T04:45:21.578Z,101509.63
2023-05-25T04:48:28.615Z,101498.63
2023-05-25T04:51:34.003Z,101516.47
2023-05-25T04:54:39.191Z,101521.81
2023-05-25T04:57:47.191Z,101519.00
2023-05-25T05:00:53.751Z,101519.06
2023-05-25T05:03:58.972Z,101521.63
2023-05-25T05:07:05.213Z,101517.38
2023-05-25T05:10:13.949Z,101518.53
2023-05-25T05:13:24.331Z,101531.59
2023-05-25T05:16:34.363Z,101517.91
2023-05-25T05:19:39.827Z,101526.41
2023-05-25T05:22:47.778Z,101520.69
2023-05-25T05:25:52.925Z,101515.81
2023-05-25T05:28:58.851Z,101528.16
2023-05-25T05:32:06.028Z,101526.38
2023-05-25T05:35:12.541Z,101525.41
2023-05-25T05:38:23.253Z,101527.88
2023-05-25T05:41:28.684Z,101532.09
2023-05-25T05:44:37.080Z,101528.13
2023-05-25T05:47:43.698Z,101533.56
2023-05-25T05:50:49.224Z,101540.56
2023-05-25T05:53:55.251Z,101544.59
2023-05-25T05:57:01.606Z,101542.69
2023-05-25T06:00:09.341Z,101550.00
2023-05-25T06:03:23.304Z,101544.41
2023-05-25T06:06:28.878Z,101554.03
2023-05-25T06:09:35.678Z,101563.25
2023-05-25T06:12:41.780Z,101556.00
2023-05-25T06:15:47.462Z,101564.81
2023-05-25T06:18:59.962Z,101575.09
2023-05-25T06:22:05.200Z,101587.44
2023-05-25T06:25:11.462Z,101571.28
2023-05-25T06:28:17.452Z,101581.88
2023-05-25T06:31:22.921Z,101590.22
2023-05-25T06:34:29.884Z,101595.69
2023-05-25T06:37:38.105Z,101618.41
2023-05-25T06:40:44.691Z,101620.31
2023-05-25T06:43:50.001Z,101616.75
2023-05-25T06:47:18.079Z,101636.06
2023-05-25T06:50:24.754Z,101637.44
2023-05-25T06:53:29.904Z,101644.56
2023-05-25T06:56:35.292Z,101646.63
2023-05-25T06:59:40.531Z,101648.03
2023-05-25T07:02:45.727Z,101650.44
2023-05-25T07:05:52.269Z,101657.44
2023-05-25T07:08:57.559Z,101660.59
2023-05-25T07:12:02.798Z,101667.75
2023-05-25T07:15:09.837Z,101666.06
2023-05-25T07:18:16.719Z,101678.03
2023-05-25T07:21:23.213Z,101685.66
2023-05-25T07:24:28.332Z,101685.06
2023-05-25T07:27:33.933Z,101690.63
2023-05-25T07:30:39.221Z,101702.91
2023-05-25T07:33:44.293Z,101703.63
2023-05-25T07:36:50.913Z,101698.19
2023-05-25T07:39:56.029Z,101696.16
2023-05-25T07:43:01.290Z,101707.41
2023-05-25T07:46:06.518Z,101715.41
2023-05-25T07:49:16.248Z,101704.09
2023-05-25T07:52:22.845Z,101715.56
2023-05-25T07:55:28.311Z,101719.00
2023-05-25T07:58:33.724Z,101712.31
2023-05-25T08:01:39.193Z,101728.03
2023-05-25T08:04:44.513Z,101736.19
2023-05-25T08:07:51.091Z,101738.19
2023-05-25T08:10:56.159Z,101745.22
2023-05-25T08:14:01.298Z,101754.34
2023-05-25T08:17:07.457Z,101763.75
2023-05-25T08:20:15.387Z,101765.53
2023-05-25T08:23:22.084Z,101768.34
2023-05-25T08:26:41.339Z,101781.44
2023-05-25T08:29:52.433Z,101771.72
2023-05-25T08:32:58.362Z,101786.56
2023-05-25T08:36:03.565Z,101786.53
2023-05-25T08:39:10.358Z,101782.44
2023-05-25T08:42:15.617Z,101797.22
2023-05-25T08:45:34.135Z,101803.63
2023-05-25T08:48:42.856Z,101801.66
2023-05-25T08:51:51.498Z,101800.25
2023-05-25T08:54:59.663Z,101801.53
2023-05-25T08:58:11.526Z,101803.22
2023-05-25T09:01:19.313Z,101803.56
2023-05-25T09:04:24.670Z,101807.78
2023-05-25T09:07:30.939Z,101811.81
2023-05-25T09:10:38.028Z,101809.75
2023-05-25T09:13:43.328Z,101810.06
2023-05-25T09:16:49.126Z,101816.88
2023-05-25T09:19:54.854Z,101821.13
2023-05-25T09:23:00.586Z,101823.88
2023-05-25T09:26:07.680Z,101833.56
2023-05-25T09:29:16.593Z,101835.59
2023-05-25T09:32:22.305Z,101842.31
2023-05-25T09:35:27.664Z,101832.47
2023-05-25T09:38:33.071Z,101837.03
2023-05-25T09:41:40.555Z,101836.38
2023-05-25T09:44:46.071Z,101845.69
2023-05-25T09:47:51.416Z,101842.25
2023-05-25T09:50:57.501Z,101846.09
2023-05-25T09:54:02.927Z,101853.34
2023-05-25T09:57:09.730Z,101859.25
2023-05-25T10:00:16.191Z,101861.97
2023-05-25T10:03:22.196Z,101866.84
2023-05-25T10:06:27.959Z,101864.16
2023-05-25T10:09:33.436Z,101863.16
2023-05-25T10:12:41.445Z,101870.81
2023-05-25T10:15:47.848Z,101869.28
2023-05-25T10:18:59.991Z,101881.78
2023-05-25T10:22:08.313Z,101878.69
2023-05-25T10:25:18.066Z,101874.00
2023-05-25T10:28:31.279Z,101879.44
2023-05-25T10:31:37.915Z,101874.81
2023-05-25T10:34:43.920Z,101880.44
2023-05-25T10:37:49.173Z,101881.00
2023-05-25T10:40:55.377Z,101882.81
2023-05-25T10:44:02.415Z,101887.28
2023-05-25T10:47:08.215Z,101885.13
2023-05-25T10:50:24.469Z,101876.66
2023-05-25T10:53:29.672Z,101881.56
2023-05-25T10:56:34.913Z,101876.75
2023-05-25T10:59:45.673Z,101878.75
2023-05-25T11:02:55.025Z,101876.88
2023-05-25T11:06:00.206Z,101878.19
2023-05-25T11:09:06.659Z,101885.34
2023-05-25T11:12:22.944Z,101891.66
2023-05-25T11:15:32.283Z,101890.13
2023-05-25T11:18:40.692Z,101895.75
2023-05-25T11:21:46.707Z,101894.78
2023-05-25T11:24:52.475Z,101885.81
2023-05-25T11:28:04.878Z,101894.22
2023-05-25T11:31:13.542Z,101888.84
2023-05-25T11:34:18.733Z,101885.97
2023-05-25T11:37:25.921Z,101884.25
2023-05-25T11:40:33.342Z,101871.97
2023-05-25T11:43:38.759Z,101874.69
2023-05-25T11:46:48.704Z,101868.22
2023-05-25T11:49:56.709Z,101872.47
2023-05-25T11:53:06.100Z,101882.31
2023-05-25T11:56:23.736Z,101871.25
2023-05-25T11:59:39.537Z,101873.94
2023-05-25T12:02:46.193Z,101871.56
2023-05-25T12:05:51.388Z,101863.84
2023-05-25T12:08:57.481Z,101867.06
2023-05-25T12:12:04.370Z,101869.25
2023-05-25T12:15:11.476Z,101872.81
2023-05-25T12:18:18.196Z,101862.47
2023-05-25T12:21:24.188Z,101872.13
2023-05-25T12:24:29.323Z,101868.84
2023-05-25T12:27:34.470Z,101853.78
2023-05-25T12:30:39.713Z,101853.50
2023-05-25T12:33:46.316Z,101857.00
2023-05-25T12:36:52.898Z,101857.00
2023-05-25T12:40:00.143Z,101851.75
2023-05-25T12:43:05.757Z,101851.09
2023-05-25T12:46:11.867Z,101855.09
2023-05-25T12:49:32.319Z,101844.00
2023-05-25T12:52:39.462Z,101850.88
2023-05-25T12:55:44.601Z,101853.00
2023-05-25T12:58:49.736Z,101847.72
2023-05-25T13:01:54.938Z,101856.69
2023-05-25T13:05:01.631Z,101864.66
2023-05-25T13:08:07.423Z,101850.94
2023-05-25T13:11:15.049Z,101858.91
2023-05-25T13:14:20.855Z,101854.50
2023-05-25T13:17:26.282Z,101869.91
2023-05-25T13:20:33.040Z,101856.19
2023-05-25T13:23:38.284Z,101858.94
2023-05-25T13:26:43.986Z,101871.81
2023-05-25T13:29:49.242Z,101857.38
2023-05-25T13:32:54.486Z,101855.63
2023-05-25T13:36:08.288Z,101866.47
2023-05-25T13:39:15.039Z,101871.81
2023-05-25T13:42:20.621Z,101872.75
2023-05-25T13:45:25.995Z,101875.06
2023-05-25T13:48:31.561Z,101874.69
2023-05-25T13:51:38.371Z,101865.38
2023-05-25T13:54:43.631Z,101872.59
2023-05-25T13:57:48.892Z,101874.66
2023-05-25T14:00:54.087Z,101876.31
2023-05-25T14:04:00.465Z,101885.47
2023-05-25T14:07:07.688Z,101883.25
2023-05-25T14:10:14.737Z,101884.53
2023-05-25T14:13:20.095Z,101876.22
2023-05-25T14:16:25.409Z,101895.25
2023-05-25T14:19:31.212Z,101884.88
2023-05-25T14:22:37.672Z,101879.06
2023-05-25T14:25:42.850Z,101888.78
2023-05-25T14:28:48.098Z,101885.66
2023-05-25T14:31:53.365Z,101880.28
2023-05-25T14:34:58.538Z,101886.28
2023-05-25T14:38:05.008Z,101883.81
2023-05-25T14:41:10.977Z,101878.06
2023-05-25T14:44:16.881Z,101891.44
2023-05-25T14:47:22.187Z,101885.56
2023-05-25T14:50:29.067Z,101894.44
2023-05-25T14:53:36.969Z,101904.44
2023-05-25T14:56:42.167Z,101901.34
2023-05-25T14:59:47.324Z,101898.63
2023-05-25T15:02:52.596Z,101896.53
2023-05-25T15:05:57.794Z,101896.25
2023-05-25T15:09:04.392Z,101889.72
2023-05-25T15:12:09.559Z,101897.53
2023-05-25T15:15:15.648Z,101904.63
2023-05-25T15:18:21.408Z,101891.06
2023-05-25T15:21:26.998Z,101900.13
2023-05-25T15:24:33.557Z,101890.56
2023-05-25T15:27:38.638Z,101895.38
2023-05-25T15:30:43.682Z,101906.31
2023-05-25T15:33:57.926Z,101906.06
2023-05-25T15:37:03.929Z,101897.78
2023-05-25T15:40:12.172Z,101897.78
2023-05-25T15:43:17.332Z,101893.00
2023-05-25T15:46:22.671Z,101894.28
2023-05-25T15:49:28.827Z,101887.72
2023-05-25T15:52:34.065Z,101877.69
2023-05-25T15:55:40.574Z,101877.53
2023-05-25T15:58:48.998Z,101882.97
2023-05-25T16:01:54.285Z,101883.53
2023-05-25T16:04:59.573Z,101889.78
2023-05-25T16:08:04.705Z,101870.44
2023-05-25T16:11:11.337Z,101869.53
2023-05-25T16:14:16.519Z,101871.69
2023-05-25T16:17:22.038Z,101876.84
2023-05-25T16:20:27.330Z,101864.69
2023-05-25T16:23:32.811Z,101863.31
2023-05-25T16:26:39.426Z,101864.56
2023-05-25T16:29:44.610Z,101855.53
2023-05-25T16:32:49.744Z,101867.25
2023-05-25T16:35:55.207Z,101859.22
2023-05-25T16:39:00.298Z,101869.28
2023-05-25T16:42:07.709Z,101875.47
2023-05-25T16:45:14.649Z,101872.72
2023-05-25T16:48:23.085Z,101884.97
2023-05-25T16:51:28.430Z,101881.75
2023-05-25T16:54:33.517Z,101889.78
2023-05-25T16:57:40.022Z,101901.09
2023-05-25T17:00:45.501Z,101898.38
2023-05-25T17:03:50.908Z,101880.31
2023-05-25T17:06:56.641Z,101882.59
2023-05-25T17:10:01.768Z,101879.63
2023-05-25T17:13:08.537Z,101885.56
2023-05-25T17:16:14.445Z,101869.69
2023-05-25T17:19:19.789Z,101882.06
2023-05-25T17:22:25.082Z,101871.44
2023-05-25T17:25:30.322Z,101867.41
2023-05-25T17:28:36.877Z,101871.69
2023-05-25T17:31:42.571Z,101859.28
2023-05-25T17:34:47.804Z,101850.44
2023-05-25T17:37:53.616Z,101850.19
2023-05-25T17:40:58.801Z,101853.25
2023-05-25T17:44:05.288Z,101854.84
2023-05-25T17:47:11.374Z,101853.31
2023-05-25T17:50:17.119Z,101858.72
2023-05-25T17:53:22.266Z,101861.81
2023-05-25T17:56:27.759Z,101868.66
2023-05-25T17:59:34.313Z,101859.47
2023-05-25T18:02:39.676Z,101865.78
2023-05-25T18:05:45.205Z,101872.84
2023-05-25T18:08:50.607Z,101873.28
2023-05-25T18:11:56.279Z,101878.16
2023-05-25T18:15:02.844Z,101879.53
2023-05-25T18:18:08.614Z,101874.78
2023-05-25T18:21:14.072Z,101875.41
2023-05-25T18:24:19.448Z,101880.06
2023-05-25T18:27:24.737Z,101890.00
2023-05-25T18:30:31.326Z,101896.81
2023-05-25T18:33:36.420Z,101902.41
2023-05-25T18:36:41.886Z,101920.75
2023-05-25T18:39:47.072Z,101922.56
2023-05-25T18:42:52.145Z,101915.72
2023-05-25T18:45:58.682Z,101901.41
2023-05-25T18:49:04.301Z,101895.03
2023-05-25T18:52:10.900Z,101904.66
2023-05-25T18:55:16.207Z,101896.47
2023-05-25T18:58:21.366Z,101899.81
2023-05-25T19:01:28.146Z,101889.66
2023-05-25T19:04:33.354Z,101881.78
2023-05-25T19:07:50.665Z,101891.00
2023-05-25T19:10:56.103Z,101885.91
2023-05-25T19:14:01.318Z,101874.44
2023-05-25T19:17:08.614Z,101870.38
2023-05-25T19:20:15.512Z,101859.47
2023-05-25T19:23:20.919Z,101858.53
2023-05-25T19:26:26.075Z,101852.81
2023-05-25T19:29:31.153Z,101849.38
2023-05-25T19:32:37.393Z,101848.00
2023-05-25T19:35:43.054Z,101849.28
2023-05-25T19:38:47.955Z,101846.78
2023-05-25T19:41:52.814Z,101846.97
2023-05-25T19:44:58.956Z,101846.97
2023-05-25T19:48:05.222Z,101849.25
2023-05-25T19:51:10.180Z,101831.97
2023-05-25T19:54:15.670Z,101854.44
2023-05-25T19:57:21.736Z,101841.50
2023-05-25T20:00:27.416Z,101846.97
2023-05-25T20:03:34.228Z,101838.00
2023-05-25T20:06:39.438Z,101834.41
2023-05-25T20:09:45.082Z,101840.25
2023-05-25T20:12:50.299Z,101834.56
2023-05-25T20:15:55.783Z,101834.28
2023-05-25T20:19:02.935Z,101830.78
2023-05-25T20:22:08.369Z,101818.66
2023-05-25T20:25:13.877Z,101816.84
2023-05-25T20:28:19.701Z,101820.75
2023-05-25T20:31:25.299Z,101811.09
2023-05-25T20:34:31.948Z,101803.19
2023-05-25T20:37:37.215Z,101812.09
2023-05-25T20:40:42.570Z,101799.22
2023-05-25T20:43:47.697Z,101804.34
2023-05-25T20:46:52.878Z,101805.78
2023-05-25T20:49:59.701Z,101794.94
2023-05-25T20:53:04.835Z,101797.72
2023-05-25T20:56:10.321Z,101794.28
2023-05-25T20:59:15.558Z,101797.22
2023-05-25T21:02:20.808Z,101792.28
2023-05-25T21:05:27.387Z,101788.25
2023-05-25T21:08:33.124Z,101778.41
2023-05-25T21:11:38.418Z,101779.69
2023-05-25T21:14:43.544Z,101775.03
2023-05-25T21:17:48.723Z,101772.50
2023-05-25T21:20:56.077Z,101764.03
2023-05-25T21:24:01.412Z,101768.44
2023-05-25T21:27:07.539Z,101770.38
2023-05-25T21:30:13.466Z,101752.97
2023-05-25T21:33:19.176Z,101761.84
2023-05-25T21:36:25.703Z,101760.75
2023-05-25T21:39:30.820Z,101752.25
2023-05-25T21:42:35.961Z,101750.28
2023-05-25T21:45:41.621Z,101745.09
2023-05-25T21:48:47.079Z,101740.28
2023-05-25T21:51:53.586Z,101743.78
2023-05-25T21:54:58.824Z,101747.00
2023-05-25T21:58:04.036Z,101739.09
2023-05-25T22:01:09.256Z,101737.91
2023-05-25T22:04:14.370Z,101735.06
2023-05-25T22:07:21.313Z,101725.56
2023-05-25T22:10:26.483Z,101726.47
2023-05-25T22:13:31.557Z,101718.78
2023-05-25T22:16:36.695Z,101723.28
2023-05-25T22:19:43.185Z,101716.97
2023-05-25T22:22:52.288Z,101705.38
2023-05-25T22:25:57.671Z,101704.94
2023-05-25T22:29:03.276Z,101701.25
2023-05-25T22:32:08.738Z,101702.81
2023-05-25T22:35:14.949Z,101702.50
2023-05-25T22:38:21.439Z,101701.75
2023-05-25T22:41:29.396Z,101692.41
2023-05-25T22:44:35.130Z,101687.28
2023-05-25T22:47:40.353Z,101680.94
2023-05-25T22:50:45.513Z,101683.00
2023-05-25T22:53:52.003Z,101672.63
2023-05-25T22:56:57.142Z,101672.59
2023-05-25T23:00:02.441Z,101667.56
2023-05-25T23:03:07.882Z,101665.88
2023-05-25T23:06:13.428Z,101661.81
2023-05-25T23:09:20.184Z,101648.03
2023-05-25T23:12:25.463Z,101644.53
2023-05-25T23:15:30.846Z,101640.47
2023-05-25T23:18:35.898Z,101635.25
2023-05-25T23:21:41.058Z,101631.09
2023-05-25T23:24:47.615Z,101636.09
2023-05-25T23:27:52.708Z,101636.88
2023-05-25T23:30:58.057Z,101626.81
2023-05-25T23:34:03.441Z,101630.28
2023-05-25T23:37:08.685Z,101624.25
2023-05-25T23:40:15.717Z,101621.69
2023-05-25T23:43:20.888Z,101620.00
2023-05-25T23:46:27.829Z,101625.22
2023-05-25T23:49:33.103Z,101617.56
2023-05-25T23:52:38.225Z,101614.84
2023-05-25T23:55:44.866Z,101620.94
2023-05-25T23:58:50.666Z,101620.81
